ICE742 EIDW-EKCH
Flight info
| Callsign | ICE742 |
|---|---|
| Flight time | N/A |
| Altitude | 37000 |
| Route | ROTEV3J ROTEV DCT GOTNA DCT BLACA DCT SURAT DCT PETIL DCT TESPI |
| Aircraft | B752/M-SDE3FGHIM3RWXY/LB1 |
Departure
| Time | N/A |
|---|---|
| Airport | Dublin Airport (EIDW) |
Arrival
| Time | 2026-04-26 21:21 |
|---|---|
| Airport | Copenhagen Kastrup Airport (EKCH) |
| Time | Latitude | Longitude | Altitude | Speed | Heading |
|---|---|---|---|---|---|
| 2026-04-26 20:47 | 55.94723 | 8.04483 | 37311 ft | 497 kts | 88° |
| 2026-04-26 20:48 | 55.94599 | 8.16833 | 37317 ft | 497 kts | 88° |
| 2026-04-26 20:48 | 55.94462 | 8.29166 | 37305 ft | 496 kts | 88° |
| 2026-04-26 20:49 | 55.94314 | 8.41365 | 37295 ft | 497 kts | 88° |
| 2026-04-26 20:49 | 55.94154 | 8.53614 | 37279 ft | 496 kts | 88° |
| 2026-04-26 20:50 | 55.93982 | 8.65921 | 37307 ft | 496 kts | 88° |
| 2026-04-26 20:50 | 55.93797 | 8.78200 | 37278 ft | 497 kts | 89° |
| 2026-04-26 20:51 | 55.93600 | 8.90424 | 37287 ft | 497 kts | 88° |
| 2026-04-26 20:51 | 55.93390 | 9.02735 | 37289 ft | 496 kts | 88° |
| 2026-04-26 20:52 | 55.93169 | 9.15002 | 37298 ft | 496 kts | 88° |
| 2026-04-26 20:52 | 55.92935 | 9.27269 | 37279 ft | 496 kts | 88° |
| 2026-04-26 20:53 | 55.92691 | 9.39342 | 37280 ft | 475 kts | 88° |
| 2026-04-26 20:53 | 55.92569 | 9.45195 | 37012 ft | 467 kts | 88° |
| 2026-04-26 20:53 | 55.92448 | 9.50951 | 36218 ft | 469 kts | 88° |
| 2026-04-26 20:53 | 55.92324 | 9.56742 | 35511 ft | 472 kts | 88° |
| 2026-04-26 20:54 | 55.92196 | 9.62544 | 34762 ft | 473 kts | 88° |
| 2026-04-26 20:54 | 55.92063 | 9.68403 | 33718 ft | 474 kts | 89° |
| 2026-04-26 20:54 | 55.91927 | 9.74311 | 32580 ft | 475 kts | 89° |
| 2026-04-26 20:54 | 55.91790 | 9.80131 | 31490 ft | 473 kts | 89° |
| 2026-04-26 20:55 | 55.91649 | 9.85877 | 30829 ft | 459 kts | 89° |
| 2026-04-26 20:55 | 55.91510 | 9.91654 | 30123 ft | 470 kts | 89° |
| 2026-04-26 20:55 | 55.91362 | 9.97609 | 29420 ft | 478 kts | 89° |
| 2026-04-26 20:55 | 55.91210 | 10.03520 | 28731 ft | 472 kts | 89° |
| 2026-04-26 20:56 | 55.91059 | 10.09259 | 28089 ft | 464 kts | 89° |
| 2026-04-26 20:56 | 55.90910 | 10.14893 | 27481 ft | 460 kts | 89° |
| 2026-04-26 20:56 | 55.90759 | 10.20496 | 26890 ft | 458 kts | 89° |
| 2026-04-26 20:56 | 55.90606 | 10.26127 | 26305 ft | 455 kts | 89° |
| 2026-04-26 20:57 | 55.90448 | 10.31787 | 25723 ft | 450 kts | 89° |
| 2026-04-26 20:57 | 55.90292 | 10.37319 | 25164 ft | 446 kts | 89° |
| 2026-04-26 20:57 | 55.90132 | 10.42831 | 24606 ft | 444 kts | 89° |
| 2026-04-26 20:57 | 55.89973 | 10.48311 | 24039 ft | 440 kts | 89° |
| 2026-04-26 20:58 | 55.89600 | 10.53737 | 23473 ft | 439 kts | 97° |
| 2026-04-26 20:58 | 55.89019 | 10.59079 | 22881 ft | 437 kts | 97° |
| 2026-04-26 20:58 | 55.88421 | 10.64371 | 22301 ft | 433 kts | 98° |
| 2026-04-26 20:58 | 55.87803 | 10.69653 | 21721 ft | 429 kts | 99° |
| 2026-04-26 20:59 | 55.87184 | 10.74836 | 21157 ft | 425 kts | 99° |
| 2026-04-26 20:59 | 55.86563 | 10.79964 | 20603 ft | 423 kts | 99° |
| 2026-04-26 20:59 | 55.85935 | 10.85111 | 20055 ft | 420 kts | 99° |
| 2026-04-26 20:59 | 55.85310 | 10.90195 | 19511 ft | 417 kts | 99° |
| 2026-04-26 21:00 | 55.84656 | 10.95231 | 18973 ft | 416 kts | 102° |
| 2026-04-26 21:00 | 55.83926 | 11.00150 | 18473 ft | 413 kts | 102° |
| 2026-04-26 21:00 | 55.83198 | 11.05085 | 17979 ft | 410 kts | 102° |
| 2026-04-26 21:00 | 55.82488 | 11.09894 | 17496 ft | 408 kts | 102° |
| 2026-04-26 21:01 | 55.81762 | 11.14795 | 17008 ft | 405 kts | 102° |
| 2026-04-26 21:01 | 55.81048 | 11.19602 | 16518 ft | 402 kts | 102° |
| 2026-04-26 21:01 | 55.80341 | 11.24354 | 16040 ft | 398 kts | 102° |
| 2026-04-26 21:01 | 55.79638 | 11.29055 | 15652 ft | 385 kts | 102° |
| 2026-04-26 21:02 | 55.78982 | 11.33415 | 15611 ft | 356 kts | 101° |
| 2026-04-26 21:02 | 55.78364 | 11.37519 | 15612 ft | 329 kts | 101° |
| 2026-04-26 21:02 | 55.77772 | 11.41484 | 15647 ft | 340 kts | 101° |
| 2026-04-26 21:02 | 55.77249 | 11.45620 | 15619 ft | 345 kts | 95° |
| 2026-04-26 21:03 | 55.76928 | 11.49855 | 15111 ft | 347 kts | 93° |
| 2026-04-26 21:03 | 55.76606 | 11.54035 | 14600 ft | 337 kts | 94° |
| 2026-04-26 21:03 | 55.76287 | 11.58110 | 14124 ft | 330 kts | 94° |
| 2026-04-26 21:03 | 55.75969 | 11.62142 | 13677 ft | 329 kts | 94° |
| 2026-04-26 21:04 | 55.75650 | 11.66164 | 13294 ft | 326 kts | 95° |
| 2026-04-26 21:04 | 55.75337 | 11.70062 | 13265 ft | 321 kts | 94° |
| 2026-04-26 21:04 | 55.75018 | 11.74056 | 13272 ft | 328 kts | 94° |
| 2026-04-26 21:04 | 55.74695 | 11.78053 | 13264 ft | 328 kts | 95° |
| 2026-04-26 21:05 | 55.74371 | 11.82051 | 13262 ft | 327 kts | 95° |
| 2026-04-26 21:05 | 55.74045 | 11.86050 | 13263 ft | 328 kts | 94° |
| 2026-04-26 21:05 | 55.73716 | 11.90075 | 13262 ft | 328 kts | 95° |
| 2026-04-26 21:05 | 55.73388 | 11.94063 | 13264 ft | 328 kts | 94° |
| 2026-04-26 21:06 | 55.73059 | 11.98057 | 13265 ft | 328 kts | 94° |
| 2026-04-26 21:06 | 55.72728 | 12.02058 | 13259 ft | 327 kts | 94° |
| 2026-04-26 21:06 | 55.72396 | 12.06057 | 12813 ft | 330 kts | 95° |
| 2026-04-26 21:06 | 55.72068 | 12.09938 | 12520 ft | 310 kts | 94° |
| 2026-04-26 21:07 | 55.71755 | 12.13681 | 11712 ft | 308 kts | 94° |
| 2026-04-26 21:07 | 55.71442 | 12.17413 | 10988 ft | 302 kts | 94° |
| 2026-04-26 21:07 | 55.71103 | 12.21040 | 10278 ft | 299 kts | 102° |
| 2026-04-26 21:07 | 55.70183 | 12.24344 | 9536 ft | 300 kts | 130° |
| 2026-04-26 21:08 | 55.68680 | 12.26922 | 8825 ft | 296 kts | 138° |
| 2026-04-26 21:08 | 55.67169 | 12.29305 | 8162 ft | 290 kts | 138° |
| 2026-04-26 21:08 | 55.65654 | 12.31663 | 7469 ft | 286 kts | 139° |
| 2026-04-26 21:08 | 55.64169 | 12.33941 | 6813 ft | 281 kts | 139° |
| 2026-04-26 21:09 | 55.62707 | 12.36137 | 6182 ft | 275 kts | 144° |
| 2026-04-26 21:09 | 55.61010 | 12.37517 | 5477 ft | 268 kts | 173° |
| 2026-04-26 21:09 | 55.59255 | 12.37263 | 5174 ft | 243 kts | 206° |
| 2026-04-26 21:09 | 55.57770 | 12.35747 | 5078 ft | 254 kts | 217° |
| 2026-04-26 21:10 | 55.56315 | 12.33909 | 4830 ft | 255 kts | 219° |
| 2026-04-26 21:10 | 55.54921 | 12.32014 | 4350 ft | 252 kts | 221° |
| 2026-04-26 21:10 | 55.53581 | 12.30099 | 4177 ft | 241 kts | 221° |
| 2026-04-26 21:10 | 55.52277 | 12.28183 | 4187 ft | 242 kts | 222° |
| 2026-04-26 21:11 | 55.50915 | 12.26798 | 4041 ft | 230 kts | 195° |
| 2026-04-26 21:11 | 55.49325 | 12.26883 | 3922 ft | 234 kts | 161° |
| 2026-04-26 21:11 | 55.47778 | 12.27919 | 3802 ft | 238 kts | 163° |
| 2026-04-26 21:11 | 55.46159 | 12.28295 | 3677 ft | 230 kts | 193° |
| 2026-04-26 21:12 | 55.44723 | 12.27169 | 3636 ft | 226 kts | 219° |
| 2026-04-26 21:12 | 55.43499 | 12.25406 | 3604 ft | 225 kts | 226° |
| 2026-04-26 21:12 | 55.42448 | 12.23326 | 3612 ft | 225 kts | 233° |
| 2026-04-26 21:12 | 55.41441 | 12.21124 | 3611 ft | 224 kts | 233° |
| 2026-04-26 21:13 | 55.40440 | 12.18977 | 3605 ft | 224 kts | 226° |
| 2026-04-26 21:13 | 55.39090 | 12.17573 | 3643 ft | 229 kts | 193° |
| 2026-04-26 21:13 | 55.37494 | 12.17708 | 3701 ft | 236 kts | 160° |
| 2026-04-26 21:13 | 55.36147 | 12.19391 | 3757 ft | 240 kts | 127° |
| 2026-04-26 21:14 | 55.35511 | 12.22117 | 3815 ft | 242 kts | 93° |
| 2026-04-26 21:14 | 55.35791 | 12.24997 | 3859 ft | 241 kts | 60° |
| 2026-04-26 21:14 | 55.36833 | 12.27218 | 3832 ft | 237 kts | 38° |
| 2026-04-26 21:14 | 55.38072 | 12.29081 | 3769 ft | 235 kts | 33° |
| 2026-04-26 21:15 | 55.39399 | 12.30763 | 3678 ft | 235 kts | 33° |
| 2026-04-26 21:15 | 55.40699 | 12.32469 | 3560 ft | 234 kts | 34° |
| 2026-04-26 21:15 | 55.42000 | 12.34203 | 3454 ft | 232 kts | 34° |
| 2026-04-26 21:15 | 55.43261 | 12.35900 | 3308 ft | 225 kts | 35° |
| 2026-04-26 21:16 | 55.44465 | 12.37655 | 3040 ft | 225 kts | 39° |
| 2026-04-26 21:16 | 55.45613 | 12.39438 | 2740 ft | 217 kts | 39° |
| 2026-04-26 21:16 | 55.46757 | 12.41220 | 2509 ft | 212 kts | 39° |
| 2026-04-26 21:16 | 55.47778 | 12.42794 | 2454 ft | 179 kts | 38° |
| 2026-04-26 21:17 | 55.48720 | 12.44216 | 2531 ft | 180 kts | 38° |
| 2026-04-26 21:17 | 55.49681 | 12.45678 | 2581 ft | 181 kts | 38° |
| 2026-04-26 21:17 | 55.50642 | 12.47144 | 2343 ft | 172 kts | 38° |
| 2026-04-26 21:17 | 55.51508 | 12.48481 | 2081 ft | 155 kts | 39° |
| 2026-04-26 21:18 | 55.52288 | 12.49694 | 1839 ft | 140 kts | 39° |
| 2026-04-26 21:18 | 55.53000 | 12.50791 | 1640 ft | 133 kts | 38° |
| 2026-04-26 21:18 | 55.53718 | 12.51876 | 1488 ft | 138 kts | 38° |
| 2026-04-26 21:18 | 55.54442 | 12.52983 | 1307 ft | 138 kts | 39° |
| 2026-04-26 21:19 | 55.55140 | 12.54056 | 1123 ft | 135 kts | 40° |
| 2026-04-26 21:19 | 55.55854 | 12.55154 | 938 ft | 135 kts | 40° |
| 2026-04-26 21:19 | 55.56564 | 12.56247 | 753 ft | 134 kts | 40° |
| 2026-04-26 21:19 | 55.57266 | 12.57339 | 564 ft | 133 kts | 42° |
| 2026-04-26 21:20 | 55.57978 | 12.58439 | 362 ft | 131 kts | 42° |
| 2026-04-26 21:20 | 55.58662 | 12.59497 | 211 ft | 131 kts | 43° |
| 2026-04-26 21:20 | 55.59356 | 12.60570 | 36 ft | 132 kts | 43° |
| 2026-04-26 21:20 | 55.60030 | 12.61612 | 14 ft | 114 kts | 41° |
| 2026-04-26 21:21 | 55.60487 | 12.62308 | 17 ft | 65 kts | 43° |
| 2026-04-26 21:21 | 55.60747 | 12.62713 | 21 ft | 33 kts | 38° |
| 2026-04-26 21:21 | 55.60947 | 12.62855 | 23 ft | 29 kts | 13° |
| 2026-04-26 21:21 | 55.61141 | 12.62950 | 25 ft | 27 kts | 31° |
| 2026-04-26 21:22 | 55.61287 | 12.63176 | 23 ft | 26 kts | 44° |
| 2026-04-26 21:22 | 55.61421 | 12.63381 | 24 ft | 24 kts | 37° |
| 2026-04-26 21:22 | 55.61551 | 12.63580 | 25 ft | 24 kts | 41° |
| 2026-04-26 21:23 | 55.61778 | 12.63949 | 24 ft | 12 kts | 24° |
| 2026-04-26 21:23 | 55.61852 | 12.64042 | 23 ft | 14 kts | 37° |
| 2026-04-26 21:23 | 55.61948 | 12.64135 | 21 ft | 16 kts | 25° |
| 2026-04-26 21:23 | 55.62059 | 12.64228 | 18 ft | 19 kts | 25° |
| 2026-04-26 21:24 | 55.62186 | 12.64335 | 17 ft | 20 kts | 25° |
| 2026-04-26 21:24 | 55.62324 | 12.64422 | 17 ft | 21 kts | 12° |
| 2026-04-26 21:24 | 55.62441 | 12.64474 | 19 ft | 10 kts | 16° |
| 2026-04-26 21:24 | 55.62464 | 12.64523 | 20 ft | 5 kts | 82° |
| 2026-04-26 21:25 | 55.62455 | 12.64584 | 20 ft | 6 kts | 117° |
| 2026-04-26 21:25 | 55.62428 | 12.64665 | 19 ft | 8 kts | 121° |
| 2026-04-26 21:25 | 55.62410 | 12.64745 | 19 ft | 6 kts | 84° |
| 2026-04-26 21:25 | 55.62418 | 12.64831 | 19 ft | 7 kts | 81° |
| 2026-04-26 21:26 | 55.62420 | 12.64898 | 20 ft | 3 kts | 89° |
| 2026-04-26 21:26 | 55.62420 | 12.64914 | 21 ft | 1 kts | 88° |
| 2026-04-26 21:26 | 55.62420 | 12.64923 | 21 ft | 0 kts | 88° |